Sao Jose Dos Quatro Marcos, Brazil
Current Conditions -  °F | °C
As of 7:00 PM on Thursday 18 Dec 2014 (Local Time) from SBCY Reporting Station
Thunderstorm Thunderstorm  
Wind Chill: 81°   Ceiling: 10000
Heat Index: 85°   Visibility: 6mi
Dew Point: 73°   Wind: 5mph
Humidity: 79%   Direction: 340°NNW
Pressure: 29.8"   Gusts: NA
Location:  15.63°S, 58.19°W
Report Text: SBCY 182200Z 34004KT 9999 TS VCSH SCT020 FEW025CB BKN100 27/23 Q1009
Loading
Personal Weather Stations






























Interactive Weather Map New forecast layout! Learn more

10-Day Weather Forecast

Advertisements
Track Severe Weather on mobile